createdAt,value
2018-12-06T00:02:13.935Z,99959.00
2018-12-06T00:04:43.936Z,99948.00
2018-12-06T00:07:13.272Z,99947.00
2018-12-06T00:09:45.276Z,99951.00
2018-12-06T00:12:16.015Z,99942.00
2018-12-06T00:14:47.007Z,99951.00
2018-12-06T00:17:16.358Z,99952.00
2018-12-06T00:19:45.790Z,99940.00
2018-12-06T00:22:16.605Z,99955.00
2018-12-06T00:24:48.215Z,99939.00
2018-12-06T00:27:19.969Z,99952.00
2018-12-06T00:30:06.012Z,99952.00
2018-12-06T00:32:36.969Z,99957.00
2018-12-06T00:35:08.374Z,99957.00
2018-12-06T00:37:39.307Z,99957.00
2018-12-06T00:40:09.004Z,99961.00
2018-12-06T00:42:38.368Z,99960.00
2018-12-06T00:45:09.994Z,99964.00
2018-12-06T00:47:39.956Z,99974.00
2018-12-06T00:50:09.524Z,99983.00
2018-12-06T00:52:38.861Z,99976.00
2018-12-06T00:55:15.719Z,99979.00
2018-12-06T00:57:45.164Z,99978.00
2018-12-06T01:00:15.780Z,99983.00
2018-12-06T01:02:45.117Z,99983.00
2018-12-06T01:05:14.897Z,99980.00
2018-12-06T01:07:45.705Z,99970.00
2018-12-06T01:10:16.568Z,99969.00
2018-12-06T01:12:46.152Z,99962.00
2018-12-06T01:15:15.887Z,99954.00
2018-12-06T01:17:46.227Z,99962.00
2018-12-06T01:20:15.584Z,99987.00
2018-12-06T01:22:50.205Z,99988.00
2018-12-06T01:25:19.788Z,99990.00
2018-12-06T01:27:49.392Z,99988.00
2018-12-06T01:30:19.114Z,99995.00
2018-12-06T01:32:48.484Z,100006.00
2018-12-06T01:35:17.947Z,100018.00
2018-12-06T01:37:52.302Z,100009.00
2018-12-06T01:40:21.665Z,100003.00
2018-12-06T01:42:56.068Z,99999.00
2018-12-06T01:45:25.399Z,100010.00
2018-12-06T01:47:54.873Z,100001.00
2018-12-06T01:50:24.339Z,100011.00
2018-12-06T01:52:53.969Z,99999.00
2018-12-06T01:55:23.628Z,99994.00
2018-12-06T01:57:53.285Z,99981.00
2018-12-06T02:00:22.773Z,99971.00
2018-12-06T02:02:52.960Z,99963.00
2018-12-06T02:05:22.303Z,99949.00
2018-12-06T02:07:51.656Z,99934.00
2018-12-06T02:10:21.759Z,99943.00
2018-12-06T02:12:51.113Z,99939.00
2018-12-06T02:15:20.453Z,99934.00
2018-12-06T02:17:50.571Z,99947.00
2018-12-06T02:20:20.462Z,99938.00
2018-12-06T02:22:49.837Z,99928.00
2018-12-06T02:25:19.197Z,99921.00
2018-12-06T02:27:48.820Z,99925.00
2018-12-06T02:30:18.273Z,99931.00
2018-12-06T02:32:47.635Z,99930.00
2018-12-06T02:35:16.969Z,99930.00
2018-12-06T02:37:46.291Z,99928.00
2018-12-06T02:40:15.785Z,99914.00
2018-12-06T02:42:45.166Z,99904.00
2018-12-06T02:45:14.815Z,99910.00
2018-12-06T02:47:44.148Z,99899.00
2018-12-06T02:50:13.475Z,99891.00
2018-12-06T02:52:42.905Z,99876.00
2018-12-06T02:55:12.237Z,99866.00
2018-12-06T02:57:41.600Z,99861.00
2018-12-06T03:00:11.492Z,99853.00
2018-12-06T03:02:40.855Z,99847.00
2018-12-06T03:05:10.221Z,99829.00
2018-12-06T03:07:39.572Z,99824.00
2018-12-06T03:10:09.093Z,99822.00
2018-12-06T03:12:38.431Z,99821.00
2018-12-06T03:15:07.982Z,99809.00
2018-12-06T03:17:37.319Z,99805.00
2018-12-06T03:20:07.528Z,99795.00
2018-12-06T03:22:36.899Z,99794.00
2018-12-06T03:25:06.891Z,99787.00
2018-12-06T03:27:36.265Z,99786.00
2018-12-06T03:30:06.864Z,99780.00
2018-12-06T03:32:36.447Z,99782.00
2018-12-06T03:35:06.063Z,99773.00
2018-12-06T03:37:35.386Z,99769.00
2018-12-06T03:40:05.808Z,99764.00
2018-12-06T03:42:35.145Z,99759.00
2018-12-06T03:45:05.100Z,99758.00
2018-12-06T03:47:34.543Z,99744.00
2018-12-06T03:50:04.190Z,99741.00
2018-12-06T03:52:33.556Z,99739.00
2018-12-06T03:55:02.909Z,99747.00
2018-12-06T03:57:32.277Z,99748.00
2018-12-06T04:00:01.654Z,99742.00
2018-12-06T04:02:30.982Z,99728.00
2018-12-06T04:05:00.404Z,99717.00
2018-12-06T04:07:29.772Z,99718.00
2018-12-06T04:09:59.133Z,99706.00
2018-12-06T04:12:28.721Z,99704.00
2018-12-06T04:14:58.085Z,99695.00
2018-12-06T04:17:27.416Z,99692.00
2018-12-06T04:19:56.770Z,99687.00
2018-12-06T04:22:26.198Z,99684.00
2018-12-06T04:24:55.544Z,99691.00
2018-12-06T04:27:24.930Z,99689.00
2018-12-06T04:29:54.231Z,99679.00
2018-12-06T04:32:23.577Z,99674.00
2018-12-06T04:34:52.920Z,99669.00
2018-12-06T04:37:22.264Z,99660.00
2018-12-06T04:39:51.750Z,99661.00
2018-12-06T04:42:21.103Z,99674.00
2018-12-06T04:44:50.417Z,99666.00
2018-12-06T04:47:19.862Z,99675.00
2018-12-06T04:49:49.205Z,99662.00
2018-12-06T04:52:18.550Z,99665.00
2018-12-06T04:54:47.892Z,99663.00
2018-12-06T04:57:17.261Z,99656.00
2018-12-06T04:59:46.748Z,99655.00
2018-12-06T05:02:16.105Z,99663.00
2018-12-06T05:04:45.468Z,99661.00
2018-12-06T05:07:14.800Z,99658.00
2018-12-06T05:09:44.172Z,99650.00
2018-12-06T05:12:13.498Z,99661.00
2018-12-06T05:14:42.851Z,99651.00
2018-12-06T05:17:12.215Z,99653.00
2018-12-06T05:19:41.546Z,99657.00
2018-12-06T05:22:10.905Z,99656.00
2018-12-06T05:24:40.259Z,99656.00
2018-12-06T05:27:09.665Z,99650.00
2018-12-06T05:29:39.022Z,99637.00
2018-12-06T05:32:08.388Z,99644.00
2018-12-06T05:34:37.731Z,99647.00
2018-12-06T05:37:07.101Z,99648.00
2018-12-06T05:39:36.425Z,99655.00
2018-12-06T05:42:05.803Z,99660.00
2018-12-06T05:44:35.123Z,99667.00
2018-12-06T05:47:04.803Z,99661.00
2018-12-06T05:49:34.176Z,99665.00
2018-12-06T05:52:03.560Z,99669.00
2018-12-06T05:54:32.976Z,99675.00
2018-12-06T05:57:02.309Z,99669.00
2018-12-06T05:59:31.684Z,99675.00
2018-12-06T06:02:01.057Z,99670.00
2018-12-06T06:04:30.404Z,99674.00
2018-12-06T06:07:02.051Z,99661.00
2018-12-06T06:09:31.820Z,99661.00
2018-12-06T06:12:01.179Z,99646.00
2018-12-06T06:14:30.568Z,99649.00
2018-12-06T06:16:59.895Z,99654.00
2018-12-06T06:19:29.269Z,99657.00
2018-12-06T06:21:58.628Z,99646.00
2018-12-06T06:24:28.004Z,99651.00
2018-12-06T06:26:57.348Z,99671.00
2018-12-06T06:29:26.746Z,99666.00
2018-12-06T06:31:56.100Z,99653.00
2018-12-06T06:34:25.488Z,99660.00
2018-12-06T06:36:54.832Z,99659.00
2018-12-06T06:39:24.213Z,99660.00
2018-12-06T06:41:53.592Z,99663.00
2018-12-06T06:44:22.958Z,99677.00
2018-12-06T06:46:52.449Z,99673.00
2018-12-06T06:49:21.800Z,99673.00
2018-12-06T06:51:51.208Z,99677.00
2018-12-06T06:54:20.619Z,99676.00
2018-12-06T06:56:49.959Z,99676.00
2018-12-06T06:59:25.794Z,99674.00
2018-12-06T07:01:50.780Z,99679.00
2018-12-06T07:04:20.126Z,99699.00
2018-12-06T07:06:49.456Z,99691.00
2018-12-06T07:09:18.816Z,99700.00
2018-12-06T07:11:48.190Z,99710.00
2018-12-06T07:14:17.555Z,99715.00
2018-12-06T07:16:47.066Z,99714.00
2018-12-06T07:19:16.489Z,99716.00
2018-12-06T07:21:46.259Z,99719.00
2018-12-06T07:24:15.887Z,99718.00
2018-12-06T07:26:45.304Z,99716.00
2018-12-06T07:29:14.858Z,99731.00
2018-12-06T07:31:45.143Z,99726.00
2018-12-06T07:34:15.293Z,99716.00
2018-12-06T07:36:44.652Z,99732.00
2018-12-06T07:39:17.644Z,99729.00
2018-12-06T07:41:51.031Z,99729.00
2018-12-06T07:44:20.508Z,99738.00
2018-12-06T07:46:49.860Z,99735.00
2018-12-06T07:49:19.247Z,99741.00
2018-12-06T07:51:48.608Z,99740.00
2018-12-06T07:54:18.172Z,99739.00
2018-12-06T07:56:47.548Z,99738.00
2018-12-06T07:59:16.915Z,99744.00
2018-12-06T08:01:46.262Z,99745.00
2018-12-06T08:04:15.611Z,99739.00
2018-12-06T08:06:44.991Z,99737.00
2018-12-06T08:09:18.435Z,99736.00
2018-12-06T08:11:47.800Z,99733.00
2018-12-06T08:14:17.282Z,99734.00
2018-12-06T08:16:48.631Z,99726.00
2018-12-06T08:19:17.992Z,99713.00
2018-12-06T08:21:47.356Z,99708.00
2018-12-06T08:24:16.695Z,99709.00
2018-12-06T08:26:46.076Z,99708.00
2018-12-06T08:29:16.216Z,99705.00
2018-12-06T08:31:45.608Z,99719.00
2018-12-06T08:34:14.968Z,99703.00
2018-12-06T08:36:44.316Z,99707.00
2018-12-06T08:39:17.795Z,99708.00
2018-12-06T08:41:47.558Z,99702.00
2018-12-06T08:44:21.246Z,99710.00
2018-12-06T08:46:49.375Z,99714.00
2018-12-06T08:49:18.718Z,99715.00
2018-12-06T08:51:48.091Z,99709.00
2018-12-06T08:54:17.436Z,99712.00
2018-12-06T08:56:46.792Z,99725.00
2018-12-06T08:59:16.357Z,99710.00
2018-12-06T09:01:45.718Z,99718.00
2018-12-06T09:04:23.980Z,99724.00
2018-12-06T09:06:54.139Z,99721.00
2018-12-06T09:09:23.491Z,99718.00
2018-12-06T09:11:52.832Z,99732.00
2018-12-06T09:14:22.665Z,99730.00
2018-12-06T09:16:52.063Z,99744.00
2018-12-06T09:19:21.449Z,99731.00
2018-12-06T09:21:50.808Z,99734.00
2018-12-06T09:24:20.317Z,99733.00
2018-12-06T09:26:58.526Z,99727.00
2018-12-06T09:29:22.814Z,99726.00
2018-12-06T09:31:52.142Z,99721.00
2018-12-06T09:34:27.125Z,99715.00
2018-12-06T09:36:56.471Z,99712.00
2018-12-06T09:39:25.916Z,99720.00
2018-12-06T09:41:55.391Z,99730.00
2018-12-06T09:44:25.332Z,99735.00
2018-12-06T09:46:54.946Z,99727.00
2018-12-06T09:49:24.327Z,99722.00
2018-12-06T09:51:53.668Z,99716.00
2018-12-06T09:54:23.023Z,99713.00
2018-12-06T09:56:52.481Z,99717.00
2018-12-06T09:59:21.864Z,99719.00
2018-12-06T10:01:51.203Z,99725.00
2018-12-06T10:04:20.581Z,99715.00
2018-12-06T10:06:50.529Z,99703.00
2018-12-06T10:09:19.892Z,99716.00
2018-12-06T10:11:49.604Z,99717.00
2018-12-06T10:14:19.776Z,99710.00
2018-12-06T10:16:49.246Z,99714.00
2018-12-06T10:19:18.596Z,99714.00
2018-12-06T10:21:52.184Z,99719.00
2018-12-06T10:24:21.606Z,99704.00
2018-12-06T10:26:55.460Z,99698.00
2018-12-06T10:29:24.849Z,99694.00
2018-12-06T10:31:54.199Z,99697.00
2018-12-06T10:34:23.572Z,99694.00
2018-12-06T10:36:52.956Z,99700.00
2018-12-06T10:39:22.310Z,99710.00
2018-12-06T10:41:51.642Z,99716.00
2018-12-06T10:44:30.520Z,99715.00
2018-12-06T10:46:59.925Z,99718.00
2018-12-06T10:49:29.309Z,99713.00
2018-12-06T10:51:58.698Z,99731.00
2018-12-06T10:54:28.087Z,99720.00
2018-12-06T10:56:57.446Z,99723.00
2018-12-06T10:59:27.578Z,99726.00
2018-12-06T11:02:02.043Z,99733.00
2018-12-06T11:04:35.799Z,99721.00
2018-12-06T11:07:07.204Z,99719.00
2018-12-06T11:09:42.223Z,99728.00
2018-12-06T11:12:16.119Z,99721.00
2018-12-06T11:14:45.512Z,99716.00
2018-12-06T11:17:15.143Z,99707.00
2018-12-06T11:19:44.516Z,99705.00
2018-12-06T11:22:13.850Z,99711.00
2018-12-06T11:24:43.206Z,99698.00
2018-12-06T11:27:12.587Z,99685.00
2018-12-06T11:29:41.918Z,99674.00
2018-12-06T11:32:11.460Z,99664.00
2018-12-06T11:34:40.916Z,99656.00
2018-12-06T11:37:10.492Z,99650.00
2018-12-06T11:39:39.856Z,99643.00
2018-12-06T11:42:11.188Z,99651.00
2018-12-06T11:44:45.093Z,99651.00
2018-12-06T11:47:14.879Z,99648.00
2018-12-06T11:49:44.224Z,99654.00
2018-12-06T11:52:13.597Z,99651.00
2018-12-06T11:54:42.936Z,99665.00
2018-12-06T11:57:12.312Z,99654.00
2018-12-06T11:59:41.691Z,99641.00
2018-12-06T12:02:11.087Z,99635.00
2018-12-06T12:04:40.438Z,99628.00
2018-12-06T12:07:09.778Z,99625.00
2018-12-06T12:09:39.129Z,99634.00
2018-12-06T12:12:08.649Z,99642.00
2018-12-06T12:14:38.003Z,99647.00
2018-12-06T12:17:07.388Z,99641.00
2018-12-06T12:19:36.892Z,99641.00
2018-12-06T12:22:06.304Z,99641.00
2018-12-06T12:24:35.690Z,99641.00
2018-12-06T12:27:05.823Z,99639.00
2018-12-06T12:29:35.187Z,99626.00
2018-12-06T12:32:08.993Z,99626.00
2018-12-06T12:34:38.390Z,99621.00
2018-12-06T12:37:07.896Z,99627.00
2018-12-06T12:39:37.422Z,99619.00
2018-12-06T12:42:06.938Z,99616.00
2018-12-06T12:44:36.410Z,99609.00
2018-12-06T12:47:05.917Z,99610.00
2018-12-06T12:49:35.374Z,99618.00
2018-12-06T12:52:04.744Z,99613.00
2018-12-06T12:54:34.222Z,99614.00
2018-12-06T12:57:03.618Z,99613.00
2018-12-06T12:59:34.727Z,99616.00
2018-12-06T13:02:04.245Z,99616.00
2018-12-06T13:04:33.606Z,99616.00
2018-12-06T13:07:12.612Z,99602.00
2018-12-06T13:09:41.957Z,99603.00
2018-12-06T13:12:11.325Z,99608.00
2018-12-06T13:14:40.694Z,99595.00
2018-12-06T13:17:10.073Z,99605.00
2018-12-06T13:19:39.467Z,99615.00
2018-12-06T13:22:08.916Z,99622.00
2018-12-06T13:24:38.285Z,99624.00
2018-12-06T13:27:07.832Z,99624.00
2018-12-06T13:29:37.294Z,99622.00
2018-12-06T13:32:06.865Z,99624.00
2018-12-06T13:34:38.370Z,99620.00
2018-12-06T13:37:07.861Z,99630.00
2018-12-06T13:39:37.214Z,99617.00
2018-12-06T13:42:06.657Z,99625.00
2018-12-06T13:44:36.002Z,99622.00
2018-12-06T13:47:05.593Z,99641.00
2018-12-06T13:49:35.053Z,99639.00
2018-12-06T13:52:04.800Z,99637.00
2018-12-06T13:54:34.191Z,99636.00
2018-12-06T13:57:03.548Z,99649.00
2018-12-06T13:59:35.706Z,99641.00
2018-12-06T14:02:05.151Z,99662.00
2018-12-06T14:04:39.005Z,99660.00
2018-12-06T14:07:08.367Z,99648.00
2018-12-06T14:09:37.833Z,99647.00
2018-12-06T14:12:07.249Z,99654.00
2018-12-06T14:14:36.591Z,99653.00
2018-12-06T14:17:06.072Z,99644.00
2018-12-06T14:19:35.439Z,99635.00
2018-12-06T14:22:04.812Z,99637.00
2018-12-06T14:24:34.192Z,99626.00
2018-12-06T14:27:03.576Z,99618.00
2018-12-06T14:29:32.976Z,99625.00
2018-12-06T14:32:04.661Z,99643.00
2018-12-06T14:34:34.067Z,99649.00
2018-12-06T14:37:07.876Z,99644.00
2018-12-06T14:39:37.240Z,99639.00
2018-12-06T14:42:06.703Z,99634.00
2018-12-06T14:44:36.089Z,99641.00
2018-12-06T14:47:05.595Z,99638.00
2018-12-06T14:49:34.962Z,99653.00
2018-12-06T14:52:04.352Z,99652.00
2018-12-06T14:54:33.721Z,99660.00
2018-12-06T14:57:03.353Z,99667.00
2018-12-06T14:59:32.694Z,99658.00
2018-12-06T15:02:02.071Z,99660.00
2018-12-06T15:04:31.436Z,99661.00
2018-12-06T15:07:00.795Z,99661.00
2018-12-06T15:09:30.160Z,99657.00
2018-12-06T15:11:59.539Z,99654.00
2018-12-06T15:14:28.897Z,99653.00
2018-12-06T15:16:58.250Z,99660.00
2018-12-06T15:19:27.753Z,99669.00
2018-12-06T15:21:57.105Z,99681.00
2018-12-06T15:24:26.738Z,99680.00
2018-12-06T15:26:56.110Z,99690.00
2018-12-06T15:29:25.493Z,99692.00
2018-12-06T15:31:55.017Z,99697.00
2018-12-06T15:34:24.420Z,99687.00
2018-12-06T15:36:53.783Z,99683.00
2018-12-06T15:39:28.849Z,99686.00
2018-12-06T15:41:58.233Z,99684.00
2018-12-06T15:44:27.704Z,99686.00
2018-12-06T15:46:57.075Z,99693.00
2018-12-06T15:49:26.425Z,99670.00
2018-12-06T15:51:57.212Z,99677.00
2018-12-06T15:54:26.745Z,99677.00
2018-12-06T15:56:56.111Z,99676.00
2018-12-06T15:59:25.482Z,99678.00
2018-12-06T16:01:55.889Z,99679.00
2018-12-06T16:04:25.286Z,99667.00
2018-12-06T16:06:55.631Z,99682.00
2018-12-06T16:09:25.018Z,99689.00
2018-12-06T16:11:54.377Z,99688.00
2018-12-06T16:14:23.782Z,99685.00
2018-12-06T16:16:53.244Z,99684.00
2018-12-06T16:19:22.662Z,99692.00
2018-12-06T16:21:52.000Z,99693.00
2018-12-06T16:24:21.388Z,99703.00
2018-12-06T16:26:50.881Z,99693.00
2018-12-06T16:29:20.262Z,99709.00
2018-12-06T16:31:49.614Z,99701.00
2018-12-06T16:34:20.001Z,99708.00
2018-12-06T16:36:49.418Z,99707.00
2018-12-06T16:39:19.135Z,99705.00
2018-12-06T16:41:48.521Z,99713.00
2018-12-06T16:44:17.907Z,99703.00
2018-12-06T16:46:47.313Z,99703.00
2018-12-06T16:49:16.718Z,99698.00
2018-12-06T16:51:46.374Z,99691.00
2018-12-06T16:54:15.778Z,99695.00
2018-12-06T16:56:45.186Z,99703.00
2018-12-06T16:59:16.623Z,99711.00
2018-12-06T17:01:46.278Z,99719.00
2018-12-06T17:04:15.822Z,99728.00
2018-12-06T17:06:45.204Z,99723.00
2018-12-06T17:09:14.551Z,99712.00
2018-12-06T17:11:43.936Z,99713.00
2018-12-06T17:14:13.313Z,99706.00
2018-12-06T17:16:43.327Z,99719.00
2018-12-06T17:19:12.710Z,99715.00
2018-12-06T17:21:42.159Z,99720.00
2018-12-06T17:24:12.305Z,99724.00
2018-12-06T17:26:41.749Z,99733.00
2018-12-06T17:29:12.925Z,99724.00
2018-12-06T17:31:43.672Z,99719.00
2018-12-06T17:34:13.539Z,99721.00
2018-12-06T17:36:42.953Z,99714.00
2018-12-06T17:39:12.366Z,99710.00
2018-12-06T17:41:42.755Z,99712.00
2018-12-06T17:44:12.164Z,99718.00
2018-12-06T17:46:41.707Z,99711.00
2018-12-06T17:49:11.103Z,99711.00
2018-12-06T17:51:40.483Z,99698.00
2018-12-06T17:54:09.859Z,99700.00
2018-12-06T17:56:39.510Z,99700.00
2018-12-06T17:59:08.964Z,99698.00
2018-12-06T18:01:38.376Z,99710.00
2018-12-06T18:04:07.840Z,99697.00
2018-12-06T18:06:37.325Z,99699.00
2018-12-06T18:09:08.476Z,99710.00
2018-12-06T18:11:38.094Z,99712.00
2018-12-06T18:14:07.493Z,99699.00
2018-12-06T18:16:37.007Z,99697.00
2018-12-06T18:19:06.460Z,99697.00
2018-12-06T18:21:35.860Z,99697.00
2018-12-06T18:24:06.571Z,99702.00
2018-12-06T18:26:35.951Z,99705.00
2018-12-06T18:29:05.453Z,99707.00
2018-12-06T18:31:34.914Z,99719.00
2018-12-06T18:34:04.449Z,99707.00
2018-12-06T18:36:33.857Z,99708.00
2018-12-06T18:39:04.653Z,99714.00
2018-12-06T18:41:34.154Z,99715.00
2018-12-06T18:44:04.345Z,99714.00
2018-12-06T18:46:33.899Z,99714.00
2018-12-06T18:49:03.365Z,99709.00
2018-12-06T18:51:32.870Z,99702.00
2018-12-06T18:54:02.253Z,99698.00
2018-12-06T18:56:32.023Z,99696.00
2018-12-06T18:59:02.517Z,99696.00
2018-12-06T19:01:31.967Z,99694.00
2018-12-06T19:04:01.376Z,99694.00
2018-12-06T19:06:30.804Z,99686.00
2018-12-06T19:09:00.305Z,99681.00
2018-12-06T19:11:29.800Z,99688.00
2018-12-06T19:14:01.057Z,99681.00
2018-12-06T19:16:31.496Z,99674.00
2018-12-06T19:19:01.072Z,99679.00
2018-12-06T19:21:30.578Z,99681.00
2018-12-06T19:24:01.204Z,99679.00
2018-12-06T19:26:30.628Z,99682.00
2018-12-06T19:29:00.017Z,99676.00
2018-12-06T19:31:29.963Z,99673.00
2018-12-06T19:33:59.347Z,99673.00
2018-12-06T19:36:28.755Z,99679.00
2018-12-06T19:38:58.132Z,99670.00
2018-12-06T19:41:28.039Z,99660.00
2018-12-06T19:43:57.319Z,99659.00
2018-12-06T19:46:26.764Z,99658.00
2018-12-06T19:48:57.771Z,99663.00
2018-12-06T19:51:27.551Z,99663.00
2018-12-06T19:53:57.156Z,99657.00
2018-12-06T19:56:26.585Z,99658.00
2018-12-06T19:58:56.030Z,99647.00
2018-12-06T20:01:25.501Z,99656.00
2018-12-06T20:03:55.196Z,99654.00
2018-12-06T20:06:24.552Z,99648.00
2018-12-06T20:08:54.073Z,99656.00
2018-12-06T20:11:23.548Z,99658.00
2018-12-06T20:13:52.905Z,99648.00
2018-12-06T20:16:22.283Z,99649.00
2018-12-06T20:18:52.004Z,99647.00
2018-12-06T20:21:21.354Z,99653.00
2018-12-06T20:23:50.988Z,99641.00
2018-12-06T20:26:20.381Z,99649.00
2018-12-06T20:28:50.888Z,99638.00
2018-12-06T20:31:20.282Z,99633.00
2018-12-06T20:33:49.688Z,99639.00
2018-12-06T20:36:19.065Z,99629.00
2018-12-06T20:38:48.525Z,99631.00
2018-12-06T20:41:17.904Z,99611.00
2018-12-06T20:43:47.254Z,99625.00
2018-12-06T20:46:16.663Z,99625.00
2018-12-06T20:48:46.060Z,99624.00
2018-12-06T20:51:15.493Z,99629.00
2018-12-06T20:53:44.905Z,99624.00
2018-12-06T20:56:14.291Z,99620.00
2018-12-06T20:58:43.743Z,99612.00
2018-12-06T21:01:13.132Z,99611.00
2018-12-06T21:03:42.481Z,99606.00
2018-12-06T21:06:11.882Z,99617.00
2018-12-06T21:08:41.251Z,99608.00
2018-12-06T21:11:10.691Z,99608.00
2018-12-06T21:13:40.127Z,99603.00
2018-12-06T21:16:09.845Z,99599.00
2018-12-06T21:18:39.221Z,99608.00
2018-12-06T21:21:08.685Z,99610.00
2018-12-06T21:23:38.125Z,99604.00
2018-12-06T21:26:07.634Z,99608.00
2018-12-06T21:28:37.061Z,99596.00
2018-12-06T21:31:06.540Z,99605.00
2018-12-06T21:33:36.047Z,99597.00
2018-12-06T21:36:05.469Z,99596.00
2018-12-06T21:38:35.021Z,99591.00
2018-12-06T21:41:04.683Z,99594.00
2018-12-06T21:43:34.052Z,99591.00
2018-12-06T21:46:03.476Z,99592.00
2018-12-06T21:48:33.239Z,99608.00
2018-12-06T21:51:02.693Z,99599.00
2018-12-06T21:53:32.142Z,99592.00
2018-12-06T21:56:01.488Z,99593.00
2018-12-06T21:58:30.814Z,99594.00
2018-12-06T22:01:00.422Z,99593.00
2018-12-06T22:03:29.842Z,99586.00
2018-12-06T22:05:59.218Z,99594.00
2018-12-06T22:08:28.697Z,99592.00
2018-12-06T22:10:58.078Z,99580.00
2018-12-06T22:13:27.456Z,99574.00
2018-12-06T22:15:56.828Z,99577.00
2018-12-06T22:18:26.413Z,99575.00
2018-12-06T22:20:56.404Z,99569.00
2018-12-06T22:23:25.888Z,99549.00
2018-12-06T22:25:55.278Z,99551.00
2018-12-06T22:28:24.698Z,99555.00
2018-12-06T22:30:54.146Z,99567.00
2018-12-06T22:33:23.506Z,99575.00
2018-12-06T22:35:52.901Z,99568.00
2018-12-06T22:38:22.224Z,99568.00
2018-12-06T22:40:51.837Z,99561.00
2018-12-06T22:43:21.286Z,99568.00
2018-12-06T22:45:59.629Z,99573.00
2018-12-06T22:48:29.213Z,99571.00
2018-12-06T22:50:58.716Z,99563.00
2018-12-06T22:53:28.107Z,99565.00
2018-12-06T22:55:57.439Z,99575.00
2018-12-06T22:58:26.943Z,99583.00
2018-12-06T23:00:59.217Z,99573.00
2018-12-06T23:03:28.851Z,99573.00
2018-12-06T23:05:58.312Z,99568.00
2018-12-06T23:08:27.680Z,99568.00
2018-12-06T23:10:57.071Z,99567.00
2018-12-06T23:13:26.454Z,99554.00
2018-12-06T23:15:55.834Z,99557.00
2018-12-06T23:18:25.186Z,99554.00
2018-12-06T23:20:54.664Z,99541.00
2018-12-06T23:23:24.027Z,99538.00
2018-12-06T23:25:53.360Z,99541.00
2018-12-06T23:28:22.740Z,99543.00
2018-12-06T23:30:52.077Z,99537.00
2018-12-06T23:33:21.430Z,99532.00
2018-12-06T23:35:50.785Z,99526.00
2018-12-06T23:38:20.203Z,99525.00
2018-12-06T23:40:49.523Z,99514.00
2018-12-06T23:43:50.887Z,99507.00
2018-12-06T23:46:20.620Z,99510.00
2018-12-06T23:48:50.078Z,99523.00
2018-12-06T23:51:36.158Z,99514.00
2018-12-06T23:54:05.683Z,99510.00
2018-12-06T23:56:35.192Z,99514.00
2018-12-06T23:59:04.594Z,99507.00
